Terminal Aerodrome Forecast
Issued by NWS

Home | Current Version | Previous Version | Text Only | Print | Product List | Glossary On
Versions: 1 2 3 4 5 6 7 8 9 10 11 12 13 14 15
997
FTUS46 KLOX 101751
TAFPMD
TAF
KPMD 101751Z 1018/1118 27015KT P6SM SCT060
     FM102100 26018G25KT P6SM SCT060
     FM110300 26014KT P6SM SCT050
     FM110600 24010KT P6SM BKN040=

USA.gov is the U.S. government's official web portal to all federal, state and local government web resources and services.